Flight Track Log - Related Links

Times and Time Zones

All times are in EDT time to prevent confusion due to time zone crossing. See the UAL1177 flight status page for this flight to view local times or setup timezone preferences in your user account.

Time Position Orientation Groundspeed Altitude Reporting Facility
EDT Latitude Longitude Course Direction KTS MPH feet Rate Location/Type
Mon 03:37:16 PM 37.6167 -122.3833 76° East 131 151 900  Level Northern Cal TRACON
Mon 03:38:11 PM 37.6667 -122.3500 28° Northeast 219 252 3,300 2,494 Climbing Northern Cal TRACON
Mon 03:38:33 PM 37.6675 -122.3333 86° East 243 280 4,100 3,036 Climbing Oakland Center
Mon 03:39:34 PM 37.7072 -122.2547 57° Northeast 258 297 7,500 3,148 Climbing Oakland Center
Mon 03:40:00 PM 37.6664 -122.1844 72° East  Level FlightAware Approximate
Mon 03:40:35 PM 37.7444 -122.1575 64° Northeast 296 341 10,500  Level Oakland Center
Mon 03:41:00 PM 37.7278 -122.0194 70° East  Level FlightAware Approximate
Mon 03:41:37 PM 37.7783 -122.0394 70° East 335 386 13,600  Level Oakland Center
Mon 03:42:00 PM 37.7862 -121.8521 76° East  Level FlightAware Approximate
Mon 03:42:38 PM 37.8231 -121.8856 70° East 383 441 17,100  Level Oakland Center
Mon 03:43:39 PM 37.8617 -121.7492 70° East 409 471 19,700 2,311 Climbing Oakland Center
Mon 03:44:40 PM 37.8886 -121.5967 77° East 447 514 21,800 2,361 Climbing Oakland Center
Mon 03:45:41 PM 37.9156 -121.4364 78° East 462 532 24,500 2,293 Climbing Oakland Center
Mon 03:46:43 PM 37.9422 -121.2753 78° East 468 539 26,500 1,854 Climbing Oakland Center
Mon 03:47:44 PM 37.9697 -121.1078 78° East 481 554 28,300 1,623 Climbing Oakland Center
Mon 03:48:45 PM 37.9981 -120.9314 78° East 500 575 29,800 1,426 Climbing Oakland Center
Mon 03:49:46 PM 38.0267 -120.7486 79° East 524 603 31,200 1,366 Climbing Oakland Center
Mon 03:50:48 PM 38.0569 -120.5614 78° East 541 623 32,600 878 Climbing Oakland Center
Mon 03:51:49 PM 38.0919 -120.3336 79° East 551 634 33,000 197 Climbing Oakland Center
Mon 03:52:50 PM 38.1206 -120.1433 79° East 550 633 33,000  Level Oakland Center
Mon 03:53:51 PM 38.1514 -119.9539 78° East 550 633 33,000  Level Oakland Center
Mon 03:54:53 PM 38.1792 -119.7628 79° East 551 634 33,000  Level Oakland Center
Mon 03:55:54 PM 38.2069 -119.5714 79° East 552 635 33,000  Level Oakland Center
Mon 03:56:55 PM 38.2339 -119.3897 79° East 548 631 33,000  Level Oakland Center
Mon 03:57:56 PM 38.2608 -119.2042 79° East 538 619 33,000 244 Level Oakland Center
Mon 03:58:58 PM 38.2931 -118.9797 80° East 540 621 33,500 927 Climbing Oakland Center
Mon 03:59:59 PM 38.3203 -118.7889 80° East 549 632 34,900 1,672 Climbing Oakland Center
Mon 04:01:00 PM 38.3472 -118.5964 80° East 553 636 36,900 2,016 Climbing Oakland Center
Mon 04:02:01 PM 38.3717 -118.4178 80° East 520 598 39,000 1,033 Climbing Oakland Center
Mon 04:03:02 PM 38.3961 -118.2417 80° East 508 585 39,000  Level Oakland Center
Mon 04:04:04 PM 38.4200 -118.0639 80° East 510 587 39,000  Level Oakland Center
Mon 04:05:05 PM 38.4431 -117.8850 81° East 510 587 39,000  Level Oakland Center
Mon 04:06:06 PM 38.4669 -117.7028 80° East 515 593 39,000  Level Oakland Center
Mon 04:07:07 PM 38.4908 -117.5214 80° East 516 594 39,000  Level Oakland Center
Mon 04:08:09 PM 38.5147 -117.3383 80° East 516 594 39,000 -195 Level Oakland Center
Mon 04:09:10 PM 38.5175 -117.1506 89° East 522 601 38,600 -689 Descending Oakland Center
Mon 04:10:11 PM 38.5136 -116.9633 91° East 521 600 37,600 -934 Descending Oakland Center
Mon 04:11:12 PM 38.5092 -116.7731 92° East 529 609 36,700 -1,033 Descending Oakland Center
Mon 04:12:13 PM 38.5044 -116.5431 91° East 535 616 35,500 -1,105 Descending Oakland Center
Mon 04:12:28 PM 38.5033 -116.5044 92° East 537 618 35,300 -484 Descending Salt Lake Center
Mon 04:13:15 PM 38.4986 -116.3478 92° East 546 628 35,000 -333 Descending Oakland Center
Mon 04:14:16 PM 38.4931 -116.1533 92° East 546 628 34,700 -395 Descending Oakland Center
Mon 04:14:31 PM 38.4919 -116.1153 92° East 547 629 34,500 -935 Descending Salt Lake Center
Mon 04:15:33 PM 38.4842 -115.9194 93° East 550 633 33,500 -732 Descending Salt Lake Center
Mon 04:16:34 PM 38.4789 -115.7222 92° East 554 638 33,000 -244 Descending Salt Lake Center
Mon 04:17:36 PM 38.4731 -115.5256 92° East 554 638 33,000  Level Salt Lake Center
Mon 04:18:37 PM 38.4653 -115.3017 92° East 554 638 33,000  Level Salt Lake Center
Mon 04:19:38 PM 38.4586 -115.1069 92° East 551 634 33,000  Level Salt Lake Center
Mon 04:20:40 PM 38.4503 -114.9131 93° East 549 632 33,000  Level Salt Lake Center
Mon 04:21:41 PM 38.4431 -114.7200 93° East 546 628 33,000  Level Salt Lake Center
Mon 04:22:43 PM 38.4344 -114.5258 93° East 548 631 33,000  Level Salt Lake Center
Mon 04:23:44 PM 38.4258 -114.3303 93° East 552 635 33,000  Level Salt Lake Center
Mon 04:24:46 PM 38.4181 -114.1347 93° East 552 635 33,000  Level Salt Lake Center
Mon 04:25:47 PM 38.4089 -113.9417 93° East 548 631 33,000  Level Salt Lake Center
Mon 04:26:48 PM 38.3997 -113.7469 93° East 549 632 33,000  Level Salt Lake Center
Mon 04:27:50 PM 38.3872 -113.5142 94° East 548 631 33,000  Level Salt Lake Center
Mon 04:28:51 PM 38.3769 -113.3183 94° East 552 635 33,000  Level Salt Lake Center
Mon 04:29:52 PM 38.3669 -113.1219 94° East 553 636 33,000  Level Salt Lake Center
Mon 04:30:54 PM 38.3758 -112.9281 87° East 551 634 33,000  Level Salt Lake Center
Mon 04:31:55 PM 38.4119 -112.7372 76° East 551 634 33,000  Level Salt Lake Center
Mon 04:32:57 PM 38.4467 -112.5478 77° East 548 631 33,000  Level Salt Lake Center
Mon 04:33:58 PM 38.4808 -112.3572 77° East 550 633 33,000  Level Salt Lake Center
Mon 04:34:59 PM 38.5142 -112.1667 77° East 550 633 33,000  Level Salt Lake Center
Mon 04:36:01 PM 38.5492 -111.9764 77° East 550 633 33,000  Level Salt Lake Center
Mon 04:37:02 PM 38.5828 -111.7833 77° East 554 638 33,000  Level Salt Lake Center
Mon 04:38:03 PM 38.6164 -111.5894 77° East 558 642 33,000  Level Salt Lake Center
Mon 04:39:05 PM 38.6556 -111.3575 78° East 556 640 33,000  Level Salt Lake Center
Mon 04:40:06 PM 38.6886 -111.1636 78° East 558 642 33,000  Level Salt Lake Center
Mon 04:41:07 PM 38.7200 -110.9714 78° East 555 639 33,000  Level Salt Lake Center
Mon 04:42:09 PM 38.7536 -110.7664 78° East 556 640 33,000  Level Salt Lake Center
Mon 04:43:10 PM 38.7850 -110.5822 78° East 554 638 33,000  Level Salt Lake Center
Mon 04:44:11 PM 38.8144 -110.3978 78° East 554 638 33,000  Level Salt Lake Center
Mon 04:44:31 PM 38.8222 -110.3364 81° East 549 632 33,000  Level Denver Center
Mon 04:45:32 PM 38.8547 -110.1203 79° East 552 635 33,000  Level Denver Center
Mon 04:46:14 PM 38.8775 -110.0019 76° East 549 632 33,000  Level Salt Lake Center
Mon 04:47:15 PM 38.9111 -109.7878 79° East 550 633 33,000  Level Salt Lake Center
Mon 04:47:36 PM 38.9181 -109.7233 82° East 549 632 33,000  Level Denver Center
Mon 04:48:38 PM 38.9461 -109.5372 79° East 555 639 33,000  Level Denver Center
Mon 04:49:39 PM 38.9786 -109.3214 79° East 554 638 33,000  Level Denver Center
Mon 04:50:41 PM 39.0031 -109.1669 78° East 556 640 33,000  Level Denver Center
Mon 04:51:43 PM 39.0419 -108.9194 78° East 558 642 33,000  Level Denver Center
Mon 04:52:45 PM 39.0714 -108.7347 78° East 554 638 33,000  Level Denver Center
Mon 04:53:46 PM 39.1161 -108.5222 75° East 554 638 33,000  Level Denver Center
Mon 04:54:48 PM 39.1539 -108.3383 75° East 558 642 33,000  Level Denver Center
Mon 04:55:50 PM 39.1978 -108.1219 75° East 562 647 33,000  Level Denver Center
Mon 04:56:52 PM 39.2353 -107.9381 75° East 558 642 33,000  Level Denver Center
Mon 04:57:53 PM 39.2722 -107.7528 76° East 559 643 33,000  Level Denver Center
Mon 04:58:55 PM 39.3147 -107.5353 76° East 560 644 33,000  Level Denver Center
Mon 04:59:57 PM 39.3511 -107.3497 76° East 560 644 33,000  Level Denver Center
Mon 05:00:58 PM 39.3939 -107.1322 76° East 560 644 33,000  Level Denver Center
Mon 05:02:00 PM 39.4294 -106.9458 76° East 558 642 33,000  Level Denver Center
Mon 05:03:02 PM 39.4600 -106.7242 80° East 561 646 33,000  Level Denver Center
Mon 05:04:04 PM 39.4831 -106.5303 81° East 569 655 33,000  Level Denver Center
Mon 05:05:05 PM 39.5056 -106.3347 81° East 572 658 33,000  Level Denver Center
Mon 05:06:07 PM 39.5314 -106.1111 81° East 566 651 33,000  Level Denver Center
Mon 05:07:09 PM 39.5542 -105.9092 82° East 564 649 33,000  Level Denver Center
Mon 05:08:35 PM 39.5800 -105.6706 82° East 562 647 33,000  Level Denver Center
Mon 05:09:37 PM 39.6103 -105.3981 82° East 561 646 33,000 98 Level Denver Center
Mon 05:10:38 PM 39.6278 -105.2278 82° East 561 646 33,200 976 Climbing Denver Center
Mon 05:11:40 PM 39.6514 -104.9972 82° East 549 632 35,000 871 Climbing Denver Center
Mon 05:12:42 PM 39.6703 -104.7967 83° East 547 629 35,000  Level Denver Center
Mon 05:13:43 PM 39.6875 -104.5864 84° East 546 628 35,000  Level Denver Center
Mon 05:14:45 PM 39.6689 -104.3883 97° East 550 633 35,000  Level Denver Center
Mon 05:15:46 PM 39.6533 -104.2244 97° East 538 619 35,000  Level Denver Center
Mon 05:16:48 PM 39.6317 -103.9978 97° East 536 617 35,000  Level Denver Center
Mon 05:17:49 PM 39.6125 -103.8025 97° East 532 612 35,000  Level Denver Center
Mon 05:18:51 PM 39.5939 -103.6111 97° East 522 601 35,000  Level Denver Center
Mon 05:19:52 PM 39.5761 -103.4206 97° East 529 609 35,000  Level Denver Center
Mon 05:20:54 PM 39.5558 -103.2286 98° East 532 612 35,000  Level Denver Center
Mon 05:21:56 PM 39.5353 -103.0383 98° East 531 611 35,000  Level Denver Center
Mon 05:22:57 PM 39.5167 -102.8492 97° East 528 608 35,000  Level Denver Center
Mon 05:23:59 PM 39.4961 -102.6653 98° East 513 590 35,000  Level Denver Center
Mon 05:25:00 PM 39.4731 -102.4536 98° East 506 582 35,000  Level Denver Center
Mon 05:26:02 PM 39.4531 -102.2697 98° East 502 578 35,000  Level Denver Center
Mon 05:27:03 PM 39.4339 -102.0997 98° East 501 577 35,000  Level Denver Center
Mon 05:28:05 PM 39.4153 -101.9306 98° East 500 575 35,000  Level Denver Center
Mon 05:29:07 PM 39.3914 -101.7297 99° East 507 583 35,000  Level Denver Center
Mon 05:30:08 PM 39.3739 -101.5589 97° East 504 580 35,000  Level Denver Center
Mon 05:31:10 PM 39.3556 -101.3581 97° East 505 581 35,000  Level Denver Center
Mon 05:32:12 PM 39.3381 -101.1858 97° East 506 582 35,000  Level Denver Center
Mon 05:33:13 PM 39.3181 -100.9856 97° East 505 581 35,000  Level Denver Center
Mon 05:34:15 PM 39.3003 -100.8144 98° East 505 581 35,000  Level Denver Center
Mon 05:35:17 PM 39.2783 -100.6125 98° East 508 585 35,000  Level Denver Center
Mon 05:36:18 PM 39.2611 -100.4400 97° East 508 585 35,000  Level Denver Center
Mon 05:37:20 PM 39.2425 -100.2672 98° East 508 585 35,000  Level Denver Center
Mon 05:38:21 PM 39.2206 -100.0667 98° East 507 583 35,000  Level Denver Center
Mon 05:39:23 PM 39.2031 -99.9039 98° East 501 577 35,000  Level Denver Center
Mon 05:41:26 PM 39.1611 -99.5381 98° East 498 573 35,000  Level Denver Center
Mon 05:42:28 PM 39.1581 -99.3367 91° East 506 582 35,000  Level Denver Center
Mon 05:43:29 PM 39.1600 -99.1644 89° East 502 578 35,000  Level Denver Center
Mon 05:44:31 PM 39.1614 -98.9911 89° East 504 580 35,000  Level Denver Center
Mon 05:45:32 PM 39.1619 -98.8206 90° East 511 588 35,000  Level Denver Center
Mon 05:46:34 PM 39.1636 -98.6053 89° East 504 580 35,000  Level Denver Center
Mon 05:47:36 PM 39.1636 -98.4236 90° East 506 582 35,000  Level Denver Center
Mon 05:48:35 PM 39.1644 -98.2325 90° East 510 587 35,000  Level Kansas City Center
Mon 05:49:38 PM 39.1639 -98.0506 90° East 508 585 35,000  Level Kansas City Center
Mon 05:50:38 PM 39.1644 -97.8661 90° East 510 587 35,000  Level Kansas City Center
Mon 05:51:42 PM 39.1639 -97.6603 90° East 515 593 35,000  Level Kansas City Center
Mon 05:52:44 PM 39.1633 -97.4836 90° East 515 593 35,000  Level Kansas City Center
Mon 05:53:45 PM 39.1619 -97.3094 91° East 510 587 35,000  Level Kansas City Center
Mon 05:54:46 PM 39.1600 -97.1072 91° East 507 583 35,000  Level Kansas City Center
Mon 05:55:50 PM 39.1586 -96.9333 91° East 507 583 35,000  Level Kansas City Center
Mon 05:56:51 PM 39.1558 -96.7308 91° East 507 583 35,000  Level Kansas City Center
Mon 05:57:52 PM 39.1539 -96.5572 91° East 506 582 35,000  Level Kansas City Center
Mon 05:58:55 PM 39.1503 -96.3556 91° East 506 582 35,000  Level Kansas City Center
Mon 05:59:55 PM 39.1469 -96.1842 91° East 502 578 35,000  Level Kansas City Center
Mon 06:00:59 PM 39.1436 -95.9836 91° East 501 577 35,000  Level Kansas City Center
Mon 06:01:59 PM 39.1403 -95.8108 91° East 505 581 35,000  Level Kansas City Center
Mon 06:03:03 PM 39.1375 -95.6083 91° East 510 587 35,000  Level Kansas City Center
Mon 06:04:04 PM 39.1325 -95.4219 92° East 504 580 35,000  Level Kansas City Center
Mon 06:05:07 PM 39.1289 -95.2417 91° East 505 581 35,000  Level Kansas City Center
Mon 06:06:08 PM 39.1233 -95.0692 92° East 512 589 35,000  Level Kansas City Center
Mon 06:07:11 PM 39.1183 -94.8692 92° East 506 582 35,000  Level Kansas City Center
Mon 06:08:11 PM 39.1128 -94.6953 92° East 509 586 35,000  Level Kansas City Center
Mon 06:09:15 PM 39.1075 -94.4939 92° East 505 581 35,000  Level Kansas City Center
Mon 06:10:15 PM 39.1011 -94.3206 93° East 507 583 35,000  Level Kansas City Center
Mon 06:11:19 PM 39.0906 -94.1208 94° East 502 578 35,000  Level Kansas City Center
Mon 06:12:19 PM 39.0417 -93.9628 112° Southeast 494 568 35,000  Level Kansas City Center
Mon 06:13:23 PM 38.9833 -93.7806 112° Southeast 494 568 35,000  Level Kansas City Center
Mon 06:14:24 PM 38.9408 -93.6347 111° Southeast 494 568 35,000  Level Kansas City Center
Mon 06:15:24 PM 38.8886 -93.4728 112° Southeast 492 566 35,000 -484 Level Kansas City Center
Mon 06:16:28 PM 38.8236 -93.2797 113° Southeast 490 564 34,000 -919 Descending Kansas City Center
Mon 06:17:28 PM 38.7708 -93.1153 112° Southeast 495 570 33,100 -919 Descending Kansas City Center
Mon 06:18:32 PM 38.7175 -92.9519 113° Southeast 495 570 32,100 -919 Descending Kansas City Center
Mon 06:19:32 PM 38.6817 -92.7797 105° East 506 582 31,200 -919 Descending Kansas City Center
Mon 06:20:36 PM 38.6842 -92.5956 89° East 513 590 30,200 -1,488 Descending Kansas City Center
Mon 06:21:37 PM 38.6861 -92.4144 89° East 509 586 28,100 -2,177 Descending Kansas City Center
Mon 06:22:40 PM 38.6875 -92.2403 89° East 495 570 25,700 -2,244 Descending Kansas City Center
Mon 06:23:40 PM 38.6892 -92.0744 89° East 473 544 23,500 -2,371 Descending Kansas City Center
Mon 06:24:44 PM 38.6908 -91.8822 89° East 452 520 20,800 -2,274 Descending Kansas City Center
Mon 06:25:44 PM 38.6914 -91.7292 90° East 438 504 18,800 -2,257 Descending Kansas City Center
Mon 06:26:25 PM 38.6939 -91.5739 89° East 414 476 17,000 -2,400 Descending FAA TRACON SMA TRACON (SMA)
Mon 06:26:44 PM 38.6944 -91.5297 89° East 409 471 16,400 -2,100 Descending FAA TRACON SMA TRACON (SMA)
Mon 06:27:05 PM 38.6942 -91.4742 90° East 406 467 15,600 -2,195 Descending FAA TRACON SMA TRACON (SMA)
Mon 06:27:25 PM 38.6933 -91.4306 91° East 401 461 14,900 -2,000 Descending FAA TRACON SMA TRACON (SMA)
Mon 06:27:44 PM 38.6928 -91.3872 91° East 397 457 14,300 -2,100 Descending FAA TRACON SMA TRACON (SMA)
Mon 06:28:05 PM 38.6931 -91.3336 90° East 394 453 13,500 -2,049 Descending FAA TRACON SMA TRACON (SMA)
Mon 06:28:25 PM 38.6928 -91.2914 90° East 388 447 12,900 -1,950 Descending FAA TRACON SMA TRACON (SMA)
Mon 06:28:45 PM 38.6928 -91.2492 90° East 385 443 12,200 -2,100 Descending FAA TRACON SMA TRACON (SMA)
Mon 06:29:05 PM 38.6917 -91.1969 92° East 383 441 11,500 -1,950 Descending FAA TRACON SMA TRACON (SMA)
Mon 06:29:25 PM 38.6911 -91.1556 91° East 380 437 10,900 -900 Descending FAA TRACON SMA TRACON (SMA)
Mon 06:29:45 PM 38.6911 -91.1147 90° East 375 432 10,900  Level FAA TRACON SMA TRACON (SMA)
Mon 06:30:05 PM 38.6911 -91.0642 90° East 370 426 10,900  Level FAA TRACON SMA TRACON (SMA)
Mon 06:30:26 PM 38.6908 -91.0231 90° East 372 428 10,900  Level FAA TRACON SMA TRACON (SMA)
Mon 06:30:45 PM 38.6908 -90.9825 90° East 372 428 10,900 -462 Level FAA TRACON SMA TRACON (SMA)
Mon 06:31:05 PM 38.6928 -90.9339 87° East 360 414 10,600 -1,050 Descending FAA TRACON SMA TRACON (SMA)
Mon 06:31:25 PM 38.7011 -90.8969 74° East 356 410 10,200 -1,171 Descending FAA TRACON SMA TRACON (SMA)
Mon 06:31:46 PM 38.7133 -90.8619 66° East 353 406 9,800 -1,756 Descending FAA TRACON SMA TRACON (SMA)
Mon 06:32:06 PM 38.7292 -90.8192 65° Northeast 347 399 9,000 -1,950 Descending FAA TRACON SMA TRACON (SMA)
Mon 06:32:26 PM 38.7414 -90.7856 65° Northeast 342 394 8,500 -1,350 Descending FAA TRACON SMA TRACON (SMA)
Mon 06:32:46 PM 38.7533 -90.7533 65° Northeast 334 384 8,100 -1,500 Descending FAA TRACON SMA TRACON (SMA)
Mon 06:33:06 PM 38.7681 -90.7139 64° Northeast 323 372 7,500 -1,846 Descending FAA TRACON SMA TRACON (SMA)
Mon 06:33:25 PM 38.7794 -90.6828 65° Northeast 316 364 6,900 -923 Descending FAA TRACON SMA TRACON (SMA)
Mon 06:33:45 PM 38.7906 -90.6533 64° Northeast 304 350 6,900 -300 Level FAA TRACON SMA TRACON (SMA)
Mon 06:34:05 PM 38.8031 -90.6192 65° Northeast 280 322 6,700 -1,200 Descending FAA TRACON SMA TRACON (SMA)
Mon 06:34:25 PM 38.8122 -90.5936 65° Northeast 261 300 6,100 -1,902 Descending FAA TRACON SMA TRACON (SMA)
Mon 06:34:46 PM 38.8214 -90.5689 65° Northeast 252 290 5,400 -2,341 Descending FAA TRACON SMA TRACON (SMA)
Mon 06:35:06 PM 38.8256 -90.5361 81° East 247 284 4,500 -2,400 Descending FAA TRACON SMA TRACON (SMA)
Mon 06:35:26 PM 38.8272 -90.5114 85° East 232 267 3,800 -1,800 Descending FAA TRACON SMA TRACON (SMA)
Mon 06:35:46 PM 38.8283 -90.4881 86° East 218 251 3,300 -1,500 Descending FAA TRACON SMA TRACON (SMA)

Login

Don't have an account? Register now (free) for customized features, flight alerts, and more!